ESMS/MMX METAR and TAF weather

Enter ICAO airport designator
Station Type Date Time Source
ESMS METAR 2019/02/20 06:50 UTC NOAA

ESMS 200650Z 29014KT 9999 OVC020 05/02 Q1012 R17/29//95


Station Type Date Time Source
ESMS Decoded METAR 2019/02/20 06:50 UTC NOAA

Malmo / Sturup, Sweden (ESMS) 55-33N 013-22E
Feb 20, 2019 - 01:50 AM EST / 2019.02.20 0650 UTC
Wind: from the WNW (290 degrees) at 16 MPH (14 KT):0
Visibility: greater than 7 mile(s):0
Sky conditions: overcast
Temperature: 41 F (5 C)
Dew Point: 35 F (2 C)
Relative Humidity: 80%
Pressure (altimeter): 29.88 in. Hg (1012 hPa)
ob: ESMS 200650Z 29014KT 9999 OVC020 05/02 Q1012 R17/29//95
cycle: 7

Station Type Date Time Source
ESMS TAF 2019/02/20 06:33 UTC NOAA

TAF ESMS 200512Z 2006/2106 27012KT 9999 SCT020
BECMG 2021/2024 4000 -RADZ BKN008
TEMPO 2100/2106 1200 BKN002


Example: see airport list